Time;durP1;ratioP1;P1;durP2;ratioP2;P2;SDS_P1;SDS_P2;PMS_P1;PMS_P2;Temp;Humidity;BMP_temperature;BMP_pressure;BME280_temperature;BME280_humidity;BME280_pressure;Samples;Min_cycle;Max_cycle;Signal;HPM_P1;HPM_P2
2022/06/04 00:01:40;;;;;;;23.37;15.60;;;17.90;95.20;;;;;;5048592;28;20946;-74
2022/06/04 00:04:06;;;;;;;28.20;17.10;;;17.90;95.00;;;;;;5046962;28;20837;-74
2022/06/04 00:06:32;;;;;;;24.73;18.00;;;17.90;94.80;;;;;;5049041;28;20552;-74
2022/06/04 00:08:58;;;;;;;21.80;15.40;;;17.70;94.80;;;;;;5039592;28;20319;-72
2022/06/04 00:16:53;;;;;;;22.63;17.07;;;17.90;94.70;;;;;;5040630;28;20504;-73
2022/06/04 00:19:19;;;;;;;24.20;16.17;;;17.80;94.50;;;;;;5034124;28;20515;-74
2022/06/04 00:21:48;;;;;;;21.07;14.10;;;17.80;94.60;;;;;;5044342;28;20199;-74
2022/06/04 00:24:14;;;;;;;25.37;16.50;;;17.80;94.80;;;;;;5039749;28;20428;-73
2022/06/04 00:26:40;;;;;;;20.37;14.77;;;17.80;94.80;;;;;;5038068;28;20524;-72
2022/06/04 00:29:07;;;;;;;23.13;15.77;;;17.70;94.90;;;;;;5047301;28;20847;-73
2022/06/04 00:31:33;;;;;;;21.00;14.57;;;17.70;95.00;;;;;;5035053;28;20190;-73
2022/06/04 00:33:58;;;;;;;21.70;15.40;;;17.70;94.80;;;;;;5041644;28;20466;-73
2022/06/04 00:36:24;;;;;;;29.37;18.43;;;17.60;94.70;;;;;;5033443;28;20217;-73
2022/06/04 00:38:50;;;;;;;20.60;16.50;;;17.60;94.60;;;;;;5040126;28;20664;-73
2022/06/04 00:41:46;;;;;;;24.80;15.80;;;17.50;94.60;;;;;;5036651;28;20189;-73
2022/06/04 00:44:13;;;;;;;22.70;15.63;;;17.50;94.90;;;;;;5041091;28;20271;-74
2022/06/04 00:46:41;;;;;;;21.40;14.77;;;17.50;94.70;;;;;;5035419;28;20965;-73
2022/06/04 00:49:15;;;;;;;21.40;15.10;;;17.50;94.80;;;;;;5046710;28;20441;-72
2022/06/04 00:51:45;;;;;;;25.43;15.67;;;17.50;95.00;;;;;;5049650;28;20418;-73
2022/06/04 00:54:11;;;;;;;21.53;15.50;;;17.50;95.00;;;;;;5043675;28;20431;-73
2022/06/04 00:56:52;;;;;;;23.90;16.13;;;17.50;95.10;;;;;;5041719;28;20487;-74
2022/06/04 00:59:54;;;;;;;24.10;16.83;;;17.50;95.10;;;;;;5037376;28;20439;-74
2022/06/04 01:02:42;;;;;;;27.33;17.43;;;17.40;95.20;;;;;;5044452;28;20422;-74
2022/06/04 01:05:27;;;;;;;25.40;17.37;;;17.50;94.90;;;;;;5050225;28;20416;-72
2022/06/04 01:08:29;;;;;;;22.70;15.37;;;17.40;94.70;;;;;;5047901;28;21215;-73
2022/06/04 01:11:25;;;;;;;23.60;16.43;;;17.50;94.80;;;;;;5038514;28;20414;-72
2022/06/04 01:14:11;;;;;;;26.03;17.73;;;17.40;94.90;;;;;;5040064;28;20430;-72
2022/06/04 01:16:46;;;;;;;21.23;15.50;;;17.40;95.10;;;;;;5039493;28;20456;-72
2022/06/04 01:19:24;;;;;;;21.20;14.50;;;17.40;95.30;;;;;;5032462;28;20427;-73
2022/06/04 01:22:08;;;;;;;17.37;12.43;;;17.50;95.40;;;;;;5040985;28;20424;-73
2022/06/04 01:24:46;;;;;;;19.50;13.10;;;17.50;95.30;;;;;;5036881;28;20429;-74
2022/06/04 01:27:21;;;;;;;18.80;13.33;;;17.40;95.30;;;;;;5036927;28;20471;-73
2022/06/04 01:30:07;;;;;;;18.33;12.30;;;17.40;95.50;;;;;;5035043;28;20436;-73
2022/06/04 01:32:43;;;;;;;18.77;13.07;;;17.30;95.60;;;;;;5035331;28;20427;-74
2022/06/04 01:35:19;;;;;;;19.23;12.53;;;17.40;95.60;;;;;;5040020;28;20412;-73
2022/06/04 01:37:59;;;;;;;20.23;14.83;;;17.40;95.70;;;;;;5040792;28;20426;-74
2022/06/04 01:43:26;;;;;;;27.57;17.13;;;17.20;95.80;;;;;;5037992;28;20421;-73
2022/06/04 01:45:57;;;;;;;23.10;15.27;;;17.30;96.00;;;;;;5039116;28;21007;-73
2022/06/04 01:48:24;;;;;;;26.70;17.67;;;17.30;95.90;;;;;;5043203;28;20433;-72
2022/06/04 01:50:59;;;;;;;27.33;17.10;;;17.30;96.00;;;;;;5039158;28;20454;-74
2022/06/04 01:53:30;;;;;;;27.50;19.77;;;17.30;95.90;;;;;;5043925;28;20514;-73
2022/06/04 01:56:24;;;;;;;26.97;19.60;;;17.30;95.60;;;;;;5036690;28;20454;-74
2022/06/04 01:59:05;;;;;;;31.60;19.33;;;17.20;95.30;;;;;;5044258;28;20485;-73
2022/06/04 02:01:33;;;;;;;25.97;18.30;;;17.20;95.30;;;;;;5035702;28;20835;-72
2022/06/04 02:04:07;;;;;;;31.33;20.90;;;17.10;95.30;;;;;;5041890;28;20431;-73
2022/06/04 02:09:45;;;;;;;24.70;19.63;;;17.10;95.10;;;;;;5037624;28;20406;-73
2022/06/04 02:12:12;;;;;;;31.87;19.63;;;17.00;95.00;;;;;;5042658;28;20429;-72
2022/06/04 02:14:40;;;;;;;26.97;18.70;;;17.00;95.10;;;;;;5041930;28;20450;-72
2022/06/04 02:17:09;;;;;;;32.40;20.57;;;16.90;95.30;;;;;;5039266;28;20584;-73
2022/06/04 02:19:34;;;;;;;30.40;19.83;;;16.90;95.50;;;;;;5052598;28;20434;-74
2022/06/04 02:22:01;;;;;;;30.73;17.90;;;16.90;95.60;;;;;;5054834;28;20538;-74
2022/06/04 02:24:27;;;;;;;28.80;18.40;;;16.90;95.70;;;;;;5052974;28;20193;-72
2022/06/04 02:26:53;;;;;;;25.80;16.47;;;16.90;95.60;;;;;;5058527;28;20466;-73
2022/06/04 02:29:19;;;;;;;24.90;15.77;;;16.90;95.80;;;;;;5046513;28;20569;-72
2022/06/04 02:32:03;;;;;;;30.20;16.40;;;17.00;95.80;;;;;;5060681;28;20429;-74
2022/06/04 02:34:46;;;;;;;25.00;16.30;;;17.00;95.90;;;;;;5045930;28;20431;-72
2022/06/04 02:37:33;;;;;;;24.83;16.73;;;17.00;95.80;;;;;;5050063;28;20458;-72
2022/06/04 02:40:19;;;;;;;25.27;16.57;;;17.00;95.70;;;;;;5048227;28;20415;-73
2022/06/04 02:43:19;;;;;;;21.63;14.87;;;17.00;95.60;;;;;;5048340;28;20932;-72
2022/06/04 02:46:01;;;;;;;29.03;16.87;;;17.00;95.60;;;;;;5047489;28;20474;-72
2022/06/04 02:48:58;;;;;;;22.67;14.50;;;17.00;95.50;;;;;;5037219;28;20433;-73
2022/06/04 02:51:34;;;;;;;24.33;14.53;;;17.10;95.50;;;;;;5042268;28;20416;-72
2022/06/04 02:54:05;;;;;;;22.90;14.30;;;17.00;95.50;;;;;;5045095;28;20423;-73
2022/06/04 02:56:33;;;;;;;18.80;13.67;;;17.00;95.60;;;;;;5037534;28;20460;-74
2022/06/04 02:59:04;;;;;;;22.07;13.63;;;17.10;95.60;;;;;;5043544;28;20442;-74
2022/06/04 03:01:32;;;;;;;24.30;14.40;;;17.00;95.40;;;;;;5045494;28;20465;-73
2022/06/04 03:03:58;;;;;;;23.23;14.07;;;17.00;95.50;;;;;;5041774;28;20433;-74
2022/06/04 03:06:33;;;;;;;26.10;15.40;;;17.00;95.70;;;;;;5042401;28;20562;-73
2022/06/04 03:09:02;;;;;;;22.90;14.60;;;17.00;95.70;;;;;;5041681;28;20979;-74
2022/06/04 03:11:28;;;;;;;20.43;15.30;;;17.00;95.20;;;;;;5036327;28;20507;-74
2022/06/04 03:13:53;;;;;;;25.67;15.00;;;17.00;95.10;;;;;;5046250;28;21001;-74
2022/06/04 03:16:19;;;;;;;20.10;14.90;;;17.00;94.90;;;;;;5039167;28;20491;-73
2022/06/04 03:18:45;;;;;;;25.40;16.00;;;17.00;94.70;;;;;;5046966;28;20686;-74
2022/06/04 03:21:12;;;;;;;21.57;14.40;;;16.90;94.70;;;;;;5039434;28;20185;-73
2022/06/04 03:23:39;;;;;;;20.13;13.67;;;16.90;94.90;;;;;;5040031;28;20420;-73
2022/06/04 03:26:05;;;;;;;18.80;13.20;;;16.90;95.10;;;;;;5041725;28;20477;-72
2022/06/04 03:28:31;;;;;;;15.90;11.53;;;17.00;95.10;;;;;;5036917;28;20420;-73
2022/06/04 03:30:57;;;;;;;16.07;10.50;;;17.00;95.10;;;;;;5039318;28;20411;-72
2022/06/04 03:33:23;;;;;;;16.63;11.60;;;17.00;95.10;;;;;;5042567;28;20431;-73
2022/06/04 03:35:49;;;;;;;14.83;9.90;;;17.00;95.20;;;;;;5038419;28;20639;-73
2022/06/04 03:38:15;;;;;;;21.33;13.53;;;17.10;95.20;;;;;;5041777;28;20514;-73
2022/06/04 03:40:41;;;;;;;17.83;11.33;;;17.10;95.10;;;;;;5042255;28;20184;-73
2022/06/04 03:43:07;;;;;;;20.77;13.60;;;17.00;95.00;;;;;;5044484;28;20437;-73
2022/06/04 03:45:33;;;;;;;18.73;12.50;;;17.10;94.90;;;;;;5039567;28;20587;-73
2022/06/04 03:47:58;;;;;;;19.00;13.67;;;17.10;94.90;;;;;;5044202;28;20188;-72
2022/06/04 03:50:25;;;;;;;20.07;12.00;;;17.10;94.60;;;;;;5045057;28;20193;-73
2022/06/04 03:52:51;;;;;;;18.63;12.70;;;17.10;94.80;;;;;;5044316;28;20187;-74
2022/06/04 03:55:19;;;;;;;21.63;12.67;;;17.10;94.70;;;;;;5035131;28;21004;-73
2022/06/04 03:57:52;;;;;;;14.53;11.00;;;17.10;94.80;;;;;;5041829;28;20455;-74
2022/06/04 04:00:21;;;;;;;17.47;12.70;;;17.10;95.00;;;;;;5047115;28;20484;-73
2022/06/04 04:02:51;;;;;;;21.90;13.20;;;17.10;94.90;;;;;;5038694;28;20523;-72
2022/06/04 04:05:22;;;;;;;16.53;12.20;;;17.10;95.00;;;;;;5041527;28;20924;-73
2022/06/04 04:07:49;;;;;;;18.30;12.70;;;17.20;95.00;;;;;;5039521;28;20487;-73
2022/06/04 04:10:15;;;;;;;16.93;11.40;;;17.30;94.90;;;;;;5042314;28;20427;-74
2022/06/04 04:12:41;;;;;;;20.03;11.70;;;17.40;94.60;;;;;;5041546;28;20414;-74
2022/06/04 04:15:08;;;;;;;17.33;11.30;;;17.40;94.10;;;;;;5043465;28;20797;-73
2022/06/04 04:17:36;;;;;;;16.97;11.00;;;17.40;94.20;;;;;;5036640;28;20217;-73
2022/06/04 04:20:05;;;;;;;16.23;10.27;;;17.60;94.10;;;;;;5045567;28;20426;-73
2022/06/04 04:22:30;;;;;;;17.10;11.17;;;17.70;93.70;;;;;;5039730;28;20464;-73
2022/06/04 04:24:56;;;;;;;14.40;10.00;;;17.70;93.40;;;;;;5043592;28;20419;-73
2022/06/04 04:27:22;;;;;;;14.50;10.23;;;17.70;93.40;;;;;;5032675;28;20214;-72
2022/06/04 04:29:48;;;;;;;15.33;10.40;;;17.70;93.30;;;;;;5042974;28;20206;-73
2022/06/04 04:32:14;;;;;;;17.87;11.57;;;17.70;93.10;;;;;;5033556;28;20448;-74
2022/06/04 04:34:39;;;;;;;13.97;10.63;;;17.60;93.30;;;;;;5043399;28;20186;-73
2022/06/04 04:37:05;;;;;;;15.20;10.53;;;17.70;93.50;;;;;;5034811;28;20259;-72
2022/06/04 04:39:31;;;;;;;16.03;11.10;;;17.70;93.30;;;;;;5040139;28;20208;-74
2022/06/04 04:41:57;;;;;;;16.77;12.43;;;17.80;93.10;;;;;;5039794;28;20560;-72
2022/06/04 04:44:23;;;;;;;16.93;11.90;;;17.80;92.80;;;;;;5040701;28;20262;-72
2022/06/04 04:46:50;;;;;;;19.20;11.20;;;17.90;92.70;;;;;;5039913;28;20482;-72
2022/06/04 04:49:16;;;;;;;18.17;12.70;;;18.00;92.30;;;;;;5036587;28;20542;-72
2022/06/04 04:51:42;;;;;;;17.13;12.00;;;18.10;91.90;;;;;;5038482;28;20448;-72
2022/06/04 04:54:07;;;;;;;15.20;11.00;;;18.10;91.70;;;;;;5042751;28;20426;-72
2022/06/04 04:56:33;;;;;;;18.43;11.80;;;18.30;91.70;;;;;;5040245;28;20300;-73
2022/06/04 04:58:59;;;;;;;16.53;11.17;;;18.40;91.80;;;;;;5041286;28;20202;-73
2022/06/04 05:01:27;;;;;;;15.67;11.87;;;18.60;91.50;;;;;;5042432;28;20556;-74
2022/06/04 05:03:54;;;;;;;16.73;10.93;;;18.80;91.10;;;;;;5041724;28;20953;-74
2022/06/04 05:06:22;;;;;;;17.57;12.13;;;19.00;90.70;;;;;;5039439;28;20478;-74
2022/06/04 05:08:49;;;;;;;18.43;12.73;;;19.00;90.00;;;;;;5036254;28;20426;-75
2022/06/04 05:11:21;;;;;;;20.13;11.80;;;19.10;89.30;;;;;;5042570;28;20423;-73
2022/06/04 05:13:49;;;;;;;15.30;12.00;;;19.10;88.70;;;;;;5036858;28;20869;-74
2022/06/04 05:16:17;;;;;;;14.40;10.80;;;19.20;88.30;;;;;;5040807;28;21062;-73
2022/06/04 05:18:42;;;;;;;15.40;11.37;;;19.20;88.70;;;;;;5035525;28;20451;-74
2022/06/04 05:21:22;;;;;;;18.43;10.77;;;19.20;88.70;;;;;;5044023;28;20447;-74
2022/06/04 05:23:49;;;;;;;13.93;10.07;;;19.20;88.90;;;;;;5036395;28;20662;-72
2022/06/04 05:26:16;;;;;;;15.10;10.83;;;19.40;88.60;;;;;;5038116;28;20475;-74
2022/06/04 05:28:42;;;;;;;14.97;10.53;;;19.50;88.00;;;;;;5047095;28;20461;-73
2022/06/04 05:31:10;;;;;;;12.57;10.40;;;19.60;87.60;;;;;;5046115;28;20427;-73
2022/06/04 05:33:35;;;;;;;15.50;11.50;;;19.70;86.90;;;;;;5040103;28;20987;-71
2022/06/04 05:36:02;;;;;;;14.07;10.10;;;19.70;86.30;;;;;;5038026;28;20462;-72
2022/06/04 05:38:28;;;;;;;14.33;10.67;;;19.60;86.80;;;;;;5034709;28;20182;-73
2022/06/04 05:41:09;;;;;;;16.00;10.43;;;19.50;87.00;;;;;;5038539;28;20781;-72
2022/06/04 05:43:35;;;;;;;12.10;9.23;;;19.60;87.10;;;;;;5043918;28;20188;-74
2022/06/04 05:46:04;;;;;;;13.00;9.83;;;19.60;87.30;;;;;;5037110;28;20466;-71
2022/06/04 05:48:30;;;;;;;13.60;9.37;;;19.60;87.00;;;;;;5043872;28;20803;-71
2022/06/04 05:50:57;;;;;;;17.83;10.93;;;19.60;86.90;;;;;;5036127;28;20510;-73
2022/06/04 05:53:24;;;;;;;13.37;10.20;;;19.60;86.90;;;;;;5045762;28;20420;-74
2022/06/04 05:55:51;;;;;;;12.43;9.20;;;19.50;87.10;;;;;;5033870;28;20941;-74
2022/06/04 05:58:17;;;;;;;12.87;9.43;;;19.60;87.30;;;;;;5043683;28;20447;-74
2022/06/04 06:00:43;;;;;;;17.90;10.77;;;19.60;87.30;;;;;;5039589;28;20438;-74
2022/06/04 06:03:09;;;;;;;17.37;11.27;;;19.50;87.80;;;;;;5044018;28;20567;-74
2022/06/04 06:05:45;;;;;;;19.60;14.03;;;19.40;88.40;;;;;;5033724;28;20585;-74
2022/06/04 06:08:12;;;;;;;12.83;9.20;;;19.40;88.70;;;;;;5036767;28;20506;-75
2022/06/04 06:10:42;;;;;;;10.70;8.60;;;19.30;88.40;;;;;;5042625;28;20480;-74
2022/06/04 06:13:08;;;;;;;11.23;7.70;;;19.30;88.60;;;;;;5034771;28;20441;-73
2022/06/04 06:15:34;;;;;;;10.13;6.83;;;19.40;87.80;;;;;;5037381;28;21286;-75
2022/06/04 06:18:00;;;;;;;15.80;8.50;;;19.40;87.70;;;;;;5036865;28;20179;-73
2022/06/04 06:20:26;;;;;;;14.20;10.13;;;19.20;90.00;;;;;;5040838;28;20423;-74
2022/06/04 06:22:52;;;;;;;17.57;10.17;;;18.80;91.70;;;;;;5040928;28;20786;-76
2022/06/04 06:25:17;;;;;;;14.50;10.30;;;18.30;93.90;;;;;;5041085;28;20180;-76
2022/06/04 06:27:43;;;;;;;15.67;11.17;;;17.90;95.40;;;;;;5041572;28;20304;-74
2022/06/04 06:30:10;;;;;;;21.90;12.03;;;17.80;96.60;;;;;;5045146;28;20185;-75
2022/06/04 06:32:36;;;;;;;17.87;12.17;;;17.70;97.20;;;;;;5034896;28;20197;-76
2022/06/04 06:35:03;;;;;;;29.57;12.60;;;17.60;98.00;;;;;;5043166;28;20764;-74
2022/06/04 06:37:29;;;;;;;19.20;11.80;;;17.50;98.50;;;;;;5036997;28;20217;-78
2022/06/04 06:39:56;;;;;;;23.23;13.10;;;17.50;98.80;;;;;;5046080;28;20791;-77
2022/06/04 06:42:22;;;;;;;16.20;11.60;;;17.50;98.90;;;;;;5041952;28;20775;-74
2022/06/04 06:44:48;;;;;;;18.80;11.67;;;17.60;99.00;;;;;;5040512;28;20446;-76
2022/06/04 06:47:14;;;;;;;22.20;13.70;;;17.60;99.10;;;;;;5047573;28;20216;-75
2022/06/04 06:49:40;;;;;;;26.27;14.40;;;17.60;99.20;;;;;;5052030;28;20603;-75
2022/06/04 06:52:06;;;;;;;20.47;11.83;;;17.70;99.30;;;;;;5046473;28;20660;-75
2022/06/04 06:54:36;;;;;;;18.43;11.50;;;17.80;99.50;;;;;;5033271;28;20522;-75
2022/06/04 06:57:05;;;;;;;22.83;13.30;;;18.00;99.70;;;;;;5040166;28;20455;-77
2022/06/04 06:59:31;;;;;;;23.53;15.97;;;18.10;99.70;;;;;;5031612;28;20802;-74
2022/06/04 07:01:58;;;;;;;27.20;18.00;;;18.10;99.70;;;;;;5045545;28;20429;-76
2022/06/04 07:04:25;;;;;;;26.20;18.63;;;18.10;99.60;;;;;;5037573;28;20194;-76
2022/06/04 07:06:58;;;;;;;37.70;20.40;;;18.20;99.60;;;;;;5042363;28;20518;-75
2022/06/04 07:09:33;;;;;;;26.60;16.50;;;18.20;99.60;;;;;;5033989;28;20517;-73
2022/06/04 07:12:00;;;;;;;27.30;17.43;;;18.20;99.60;;;;;;5037745;28;20775;-77
2022/06/04 07:14:27;;;;;;;29.40;16.50;;;18.20;99.60;;;;;;5043552;28;20440;-74
2022/06/04 07:16:54;;;;;;;22.10;15.47;;;18.20;99.70;;;;;;5037425;28;20460;-76
2022/06/04 07:19:22;;;;;;;24.37;15.90;;;18.20;99.60;;;;;;5042156;28;20437;-74
2022/06/04 07:21:49;;;;;;;21.90;14.60;;;18.20;99.40;;;;;;5037946;28;20425;-74
2022/06/04 07:24:15;;;;;;;20.43;14.37;;;18.20;99.40;;;;;;5044847;28;20433;-75
2022/06/04 07:26:41;;;;;;;29.57;15.40;;;18.30;99.20;;;;;;5042708;28;20479;-74
2022/06/04 07:29:08;;;;;;;22.53;13.63;;;18.40;99.00;;;;;;5048316;28;20487;-76
2022/06/04 07:31:34;;;;;;;20.47;13.47;;;18.60;98.80;;;;;;5054996;28;20430;-76
2022/06/04 07:34:00;;;;;;;17.67;11.60;;;18.60;97.80;;;;;;5046441;28;20434;-74
2022/06/04 07:36:29;;;;;;;20.03;13.33;;;18.70;96.80;;;;;;5051124;28;20464;-76
2022/06/04 07:38:55;;;;;;;19.10;12.40;;;18.80;96.30;;;;;;5046788;28;20197;-74
2022/06/04 07:41:28;;;;;;;20.17;13.63;;;19.10;96.40;;;;;;5050636;28;20425;-72
2022/06/04 07:43:54;;;;;;;22.77;14.07;;;19.30;96.40;;;;;;5043077;28;20433;-74
2022/06/04 07:46:21;;;;;;;22.30;14.20;;;19.30;95.70;;;;;;5041905;28;20474;-73
2022/06/04 07:48:47;;;;;;;19.53;12.00;;;19.50;95.90;;;;;;5044486;28;20501;-74
2022/06/04 07:51:15;;;;;;;18.67;12.53;;;19.70;96.10;;;;;;5049154;28;20508;-73
2022/06/04 07:53:41;;;;;;;20.30;12.73;;;19.90;95.80;;;;;;5041554;28;20565;-73
2022/06/04 07:56:13;;;;;;;21.97;14.07;;;20.10;95.20;;;;;;5050210;28;20530;-72
2022/06/04 07:58:39;;;;;;;23.57;14.67;;;20.00;94.50;;;;;;5048302;28;20451;-72
2022/06/04 08:01:06;;;;;;;18.53;13.97;;;20.00;94.30;;;;;;5046091;28;20816;-74
2022/06/04 08:03:34;;;;;;;23.03;15.30;;;19.70;93.90;;;;;;5041403;28;20488;-72
2022/06/04 08:06:01;;;;;;;22.20;15.30;;;19.60;94.40;;;;;;5043449;28;20478;-74
2022/06/04 08:08:27;;;;;;;20.23;13.57;;;19.50;94.70;;;;;;5041279;28;20427;-73
2022/06/04 08:10:52;;;;;;;22.30;15.43;;;19.70;94.90;;;;;;5043620;28;20514;-73
2022/06/04 08:13:37;;;;;;;23.23;16.03;;;20.00;94.90;;;;;;5040072;28;20433;-73
2022/06/04 08:16:02;;;;;;;24.97;16.20;;;20.00;93.50;;;;;;5037639;28;20688;-73
2022/06/04 08:18:28;;;;;;;23.20;15.43;;;20.10;93.40;;;;;;5037721;28;20445;-74
2022/06/04 08:20:54;;;;;;;22.27;15.63;;;20.30;93.50;;;;;;5040100;28;20192;-73
2022/06/04 08:23:20;;;;;;;27.50;15.80;;;20.40;93.00;;;;;;5040573;28;20627;-73
2022/06/04 08:25:51;;;;;;;25.00;16.07;;;20.50;92.30;;;;;;5042507;28;20293;-72
2022/06/04 08:28:17;;;;;;;22.17;15.33;;;20.70;92.60;;;;;;5039310;28;20438;-73
2022/06/04 08:30:44;;;;;;;26.90;15.93;;;20.90;92.40;;;;;;5037615;28;20423;-74
2022/06/04 08:33:11;;;;;;;19.63;14.90;;;21.10;91.00;;;;;;5035897;28;20424;-73
2022/06/04 08:35:37;;;;;;;17.53;12.93;;;21.00;90.00;;;;;;5035069;28;20445;-73
2022/06/04 08:38:04;;;;;;;18.83;12.90;;;21.10;90.70;;;;;;5045040;28;20425;-73
2022/06/04 08:40:50;;;;;;;17.67;13.20;;;21.40;90.90;;;;;;5052208;28;20484;-73
2022/06/04 08:43:55;;;;;;;15.60;11.37;;;21.50;90.00;;;;;;5062549;28;20413;-73
2022/06/04 08:46:32;;;;;;;19.00;13.80;;;21.60;88.70;;;;;;5044281;28;20472;-72
2022/06/04 08:49:03;;;;;;;18.00;13.40;;;21.60;88.70;;;;;;5050586;28;20838;-72
2022/06/04 08:51:30;;;;;;;21.43;14.90;;;21.30;88.90;;;;;;5051512;28;20495;-73
2022/06/04 08:53:58;;;;;;;19.33;14.13;;;21.10;90.00;;;;;;5044879;28;20429;-72
2022/06/04 08:59:46;;;;;;;20.20;13.10;;;21.00;90.40;;;;;;5043721;28;20452;-73
2022/06/04 09:02:19;;;;;;;25.30;17.57;;;21.10;91.10;;;;;;5041710;28;20447;-72
2022/06/04 09:05:08;;;;;;;21.33;15.20;;;21.20;91.00;;;;;;5039064;28;20433;-74
2022/06/04 09:07:44;;;;;;;26.80;18.00;;;21.30;90.40;;;;;;5038266;28;20478;-73
2022/06/04 09:10:29;;;;;;;26.80;16.27;;;21.40;90.40;;;;;;5036447;28;20938;-72
2022/06/04 09:13:02;;;;;;;20.10;15.07;;;21.60;90.20;;;;;;5039764;28;20824;-71
2022/06/04 09:15:34;;;;;;;18.43;14.37;;;21.80;89.70;;;;;;5042619;28;20445;-74
2022/06/04 09:18:09;;;;;;;19.13;15.67;;;22.00;88.00;;;;;;5043748;28;20426;-73
2022/06/04 09:20:48;;;;;;;24.83;17.30;;;21.90;87.80;;;;;;5039644;28;20498;-73
2022/06/04 09:23:34;;;;;;;23.17;16.13;;;21.80;87.80;;;;;;5038505;28;20431;-73
2022/06/04 09:26:15;;;;;;;19.97;14.70;;;22.10;87.40;;;;;;5029125;28;21248;-73
2022/06/04 09:28:49;;;;;;;19.37;14.27;;;22.30;87.10;;;;;;5035589;28;20803;-71
2022/06/04 09:31:23;;;;;;;18.90;14.00;;;22.40;85.50;;;;;;5036397;28;20430;-73
2022/06/04 09:34:01;;;;;;;21.77;13.67;;;22.60;86.60;;;;;;5038364;28;20441;-72
2022/06/04 09:36:39;;;;;;;18.43;12.57;;;22.90;84.10;;;;;;5036083;28;20470;-71
2022/06/04 09:39:22;;;;;;;16.87;12.37;;;23.10;83.30;;;;;;5033045;28;20447;-72
2022/06/04 09:42:00;;;;;;;15.80;12.03;;;23.60;80.30;;;;;;5038554;28;20422;-72
2022/06/04 09:44:29;;;;;;;15.63;12.40;;;23.80;79.90;;;;;;5036024;28;20448;-73
2022/06/04 09:47:21;;;;;;;17.67;13.43;;;24.00;78.40;;;;;;5039140;28;20562;-73
2022/06/04 09:49:57;;;;;;;17.30;12.83;;;24.00;79.20;;;;;;5048289;28;20880;-72
2022/06/04 09:52:38;;;;;;;20.63;14.40;;;23.90;79.20;;;;;;5038591;28;20428;-73
2022/06/04 09:55:19;;;;;;;18.10;13.13;;;23.60;80.30;;;;;;5032334;28;20433;-74
2022/06/04 09:57:57;;;;;;;16.27;13.17;;;23.30;80.80;;;;;;5040520;28;20463;-73
2022/06/04 10:00:27;;;;;;;20.03;13.90;;;23.00;81.50;;;;;;5039900;28;20445;-74
2022/06/04 10:03:01;;;;;;;21.23;15.33;;;23.00;82.80;;;;;;5043913;28;20792;-72
2022/06/04 10:05:30;;;;;;;22.10;15.60;;;23.20;82.10;;;;;;5039826;28;20515;-74
2022/06/04 10:07:57;;;;;;;24.90;16.20;;;23.00;83.00;;;;;;5038148;28;20462;-73
2022/06/04 10:10:37;;;;;;;25.47;17.27;;;22.70;83.30;;;;;;5038073;28;20427;-73
2022/06/04 10:13:43;;;;;;;24.20;16.77;;;22.50;84.90;;;;;;5036431;28;20414;-73
2022/06/04 10:16:15;;;;;;;25.57;16.67;;;22.20;85.90;;;;;;5035337;28;20544;-73
2022/06/04 10:19:12;;;;;;;24.00;17.10;;;22.00;86.80;;;;;;5042911;28;20493;-73
2022/06/04 10:21:41;;;;;;;29.27;18.50;;;22.00;86.60;;;;;;5033264;28;20518;-73
2022/06/04 10:24:31;;;;;;;24.53;17.53;;;21.80;86.80;;;;;;5038926;28;20449;-72
2022/06/04 10:27:06;;;;;;;18.43;12.60;;;21.80;87.30;;;;;;5038469;28;20472;-72
2022/06/04 10:29:34;;;;;;;19.37;13.93;;;21.50;85.20;;;;;;5039555;28;20425;-73
2022/06/04 10:32:18;;;;;;;18.87;13.23;;;21.50;86.30;;;;;;5038583;28;20515;-73
2022/06/04 10:35:00;;;;;;;21.80;15.97;;;21.50;86.80;;;;;;5040005;28;20406;-73
2022/06/04 10:37:38;;;;;;;18.47;14.63;;;21.60;87.30;;;;;;5038302;28;20532;-73
2022/06/04 10:40:20;;;;;;;20.43;14.57;;;21.40;87.40;;;;;;5033706;28;20429;-74
2022/06/04 10:43:00;;;;;;;20.90;13.50;;;21.50;87.00;;;;;;5045792;28;20571;-74
2022/06/04 10:45:56;;;;;;;25.27;14.33;;;21.60;86.90;;;;;;5034948;28;20818;-74
2022/06/04 10:48:28;;;;;;;16.40;12.33;;;21.90;86.20;;;;;;5050535;28;20917;-73
2022/06/04 10:51:26;;;;;;;14.00;10.80;;;21.90;84.10;;;;;;5039495;28;20482;-73
2022/06/04 10:54:07;;;;;;;19.90;13.43;;;21.90;84.10;;;;;;5037732;28;20502;-73
2022/06/04 10:56:49;;;;;;;17.63;12.53;;;21.90;83.80;;;;;;5038445;28;20487;-73
2022/06/04 10:59:39;;;;;;;17.60;13.00;;;21.80;84.10;;;;;;5052821;28;20432;-74
2022/06/04 11:02:10;;;;;;;17.67;13.80;;;21.80;84.60;;;;;;5042834;28;20901;-73
2022/06/04 11:05:02;;;;;;;21.60;15.13;;;21.60;84.60;;;;;;5040010;28;20484;-73
2022/06/04 11:07:55;;;;;;;20.70;12.93;;;21.30;86.00;;;;;;5040499;28;20470;-72
2022/06/04 11:10:23;;;;;;;20.77;15.10;;;21.50;86.60;;;;;;5045394;28;20805;-73
2022/06/04 11:13:16;;;;;;;26.93;17.80;;;21.40;86.60;;;;;;5038158;28;20426;-73
2022/06/04 11:15:47;;;;;;;29.03;19.10;;;21.20;87.70;;;;;;5052479;28;20542;-72
2022/06/04 11:18:26;;;;;;;27.50;17.90;;;21.00;88.70;;;;;;5048034;28;20427;-74
2022/06/04 11:21:03;;;;;;;28.03;19.00;;;21.20;88.40;;;;;;5053499;28;20498;-74
2022/06/04 11:23:49;;;;;;;24.00;17.10;;;21.10;88.40;;;;;;5056079;28;20600;-73
2022/06/04 11:26:31;;;;;;;23.37;17.30;;;21.20;88.40;;;;;;5056990;28;20530;-73
2022/06/04 11:28:59;;;;;;;33.50;21.80;;;21.20;88.40;;;;;;5045123;28;20464;-72
2022/06/04 11:31:24;;;;;;;31.17;21.40;;;21.10;88.70;;;;;;5043638;28;20424;-73
2022/06/04 11:33:59;;;;;;;35.07;23.50;;;21.00;89.20;;;;;;5044188;28;20467;-72
2022/06/04 11:36:36;;;;;;;30.57;21.17;;;20.90;90.20;;;;;;5038435;28;20210;-72
2022/06/04 11:39:02;;;;;;;34.60;22.73;;;20.90;90.30;;;;;;5042578;28;20428;-74
2022/06/04 11:42:03;;;;;;;33.70;22.70;;;20.90;90.10;;;;;;5037739;28;20441;-73
2022/06/04 11:44:56;;;;;;;33.70;22.90;;;21.10;90.10;;;;;;5039377;28;21022;-72
2022/06/04 11:47:58;;;;;;;40.03;23.67;;;21.10;90.00;;;;;;5040143;28;20822;-73
2022/06/04 11:50:56;;;;;;;39.00;25.60;;;21.10;90.00;;;;;;5040128;28;20455;-72
2022/06/04 11:53:22;;;;;;;31.60;22.77;;;21.20;89.50;;;;;;5046862;28;20418;-73
2022/06/04 11:55:57;;;;;;;35.83;23.40;;;21.10;90.10;;;;;;5037962;28;20480;-73
2022/06/04 11:58:35;;;;;;;33.10;22.20;;;21.20;89.90;;;;;;5041574;28;20203;-74
2022/06/04 12:01:09;;;;;;;35.40;23.43;;;21.50;89.30;;;;;;5046418;28;20425;-74
2022/06/04 12:04:06;;;;;;;30.83;20.57;;;21.80;88.30;;;;;;5046393;28;20822;-73
2022/06/04 12:06:41;;;;;;;32.63;23.03;;;22.20;87.70;;;;;;5046392;28;20545;-76
2022/06/04 12:09:22;;;;;;;34.07;23.80;;;22.30;86.00;;;;;;5049097;28;20474;-73
2022/06/04 12:12:09;;;;;;;36.63;24.60;;;22.20;86.50;;;;;;5046940;28;20421;-74
2022/06/04 12:14:42;;;;;;;29.37;20.43;;;22.50;85.60;;;;;;5047491;28;20927;-74
2022/06/04 12:17:11;;;;;;;31.33;22.27;;;22.70;85.00;;;;;;5041826;28;20548;-73
2022/06/04 12:25:42;;;;;;;31.47;21.83;;;23.10;83.30;;;;;;5044499;28;20458;-73
2022/06/04 12:28:39;;;;;;;25.57;19.40;;;23.50;82.40;;;;;;5034935;28;20428;-73
2022/06/04 12:31:06;;;;;;;29.70;22.20;;;23.90;80.50;;;;;;5043683;28;20419;-74
2022/06/04 12:33:41;;;;;;;29.50;20.70;;;23.90;79.30;;;;;;5042883;28;20776;-73
2022/06/04 12:36:09;;;;;;;32.90;21.30;;;24.00;79.90;;;;;;5041151;28;20480;-73
2022/06/04 12:38:39;;;;;;;28.97;20.60;;;23.80;79.60;;;;;;5040535;28;20457;-73
2022/06/04 12:41:20;;;;;;;29.93;21.00;;;23.80;80.30;;;;;;5041406;28;20463;-75
2022/06/04 12:43:58;;;;;;;27.73;21.10;;;24.30;78.10;;;;;;5041077;28;20758;-74
2022/06/04 12:46:25;;;;;;;29.90;22.83;;;24.50;77.40;;;;;;5046799;28;20477;-73
2022/06/04 12:48:54;;;;;;;25.00;18.83;;;24.20;77.40;;;;;;5044991;28;20419;-74
2022/06/04 12:51:44;;;;;;;29.37;20.67;;;24.20;78.10;;;;;;5034362;28;20511;-72
2022/06/04 12:54:28;;;;;;;27.33;18.77;;;24.40;77.10;;;;;;5041641;28;20468;-73
2022/06/04 12:56:58;;;;;;;20.97;15.63;;;24.40;77.30;;;;;;5043182;28;20458;-74
2022/06/04 12:59:40;;;;;;;21.10;16.13;;;24.80;76.40;;;;;;5041531;28;20464;-74
2022/06/04 13:02:30;;;;;;;25.63;18.17;;;25.60;73.60;;;;;;5041408;28;20425;-75
2022/06/04 13:05:11;;;;;;;27.93;18.13;;;26.00;71.60;;;;;;5038705;28;20795;-74
2022/06/04 13:07:48;;;;;;;19.00;14.60;;;25.80;71.70;;;;;;5039201;28;20477;-73
2022/06/04 13:10:38;;;;;;;19.30;15.00;;;26.00;71.40;;;;;;5033331;28;20427;-74
2022/06/04 13:13:56;;;;;;;16.40;13.00;;;26.70;68.60;;;;;;5039923;28;20417;-73
2022/06/04 13:16:27;;;;;;;21.83;15.60;;;26.30;67.00;;;;;;5035206;28;20497;-75
2022/06/04 13:19:18;;;;;;;20.40;15.80;;;26.30;68.30;;;;;;5038321;28;20420;-74